Time;durP1;ratioP1;P1;durP2;ratioP2;P2;SDS_P1;SDS_P2;PMS_P1;PMS_P2;Temp;Humidity;BMP_temperature;BMP_pressure;BME280_temperature;BME280_humidity;BME280_pressure;Samples;Min_cycle;Max_cycle;Signal;HPM_P1;HPM_P2
2022/05/11 00:01:31;;;;;;;6.57;5.93;;;17.30;99.90;;;;;;5034322;28;20440;-90
2022/05/11 00:03:58;;;;;;;6.03;5.50;;;;;;;;;;5034432;28;20447;-90
2022/05/11 00:06:25;;;;;;;5.03;4.63;;;;;;;;;;5034448;28;20452;-87
2022/05/11 00:08:52;;;;;;;9.50;5.20;;;;;;;;;;5033443;28;20887;-89
2022/05/11 00:11:20;;;;;;;5.50;5.10;;;;;;;;;;5034330;28;20970;-90
2022/05/11 00:13:47;;;;;;;6.10;5.63;;;;;;;;;;5034237;28;20443;-88
2022/05/11 00:16:14;;;;;;;8.83;5.20;;;;;;;;;;5034281;28;20447;-90
2022/05/11 00:18:43;;;;;;;6.60;6.00;;;17.20;99.90;;;;;;5034029;28;20456;-88
2022/05/11 00:21:11;;;;;;;5.60;5.10;;;17.00;99.90;;;;;;5033970;28;20807;-88
2022/05/11 00:23:38;;;;;;;5.60;5.10;;;;;;;;;;5032831;28;20451;-89
2022/05/11 00:26:05;;;;;;;6.17;4.87;;;;;;;;;;5033753;28;20483;-89
2022/05/11 00:28:32;;;;;;;5.80;5.20;;;;;;;;;;5033805;28;20981;-87
2022/05/11 00:30:59;;;;;;;5.90;5.40;;;;;;;;;;5033712;28;20455;-88
2022/05/11 00:33:26;;;;;;;5.57;5.00;;;;;;;;;;5033057;28;20450;-88
2022/05/11 00:35:55;;;;;;;6.43;5.50;;;16.90;99.90;;;;;;5033633;28;20498;-89
2022/05/11 00:38:24;;;;;;;7.87;5.47;;;16.80;99.90;;;;;;5032757;28;20857;-87
2022/05/11 00:40:53;;;;;;;6.87;6.27;;;17.00;99.90;;;;;;5033550;28;20487;-86
2022/05/11 00:43:27;;;;;;;6.83;6.27;;;16.50;99.90;;;;;;5033593;28;20939;-89
2022/05/11 00:45:58;;;;;;;6.17;5.67;;;16.00;99.90;;;;;;5033603;28;20814;-88
2022/05/11 00:51:15;;;;;;;6.80;5.50;;;16.50;99.90;;;;;;5033534;28;20802;-87
2022/05/11 00:53:45;;;;;;;6.90;6.30;;;16.70;99.90;;;;;;5029266;28;20505;-89
2022/05/11 00:56:14;;;;;;;6.63;5.97;;;16.80;99.90;;;;;;5033357;28;20498;-86
2022/05/11 00:58:46;;;;;;;6.73;6.00;;;16.60;99.90;;;;;;5031685;28;20451;-88
2022/05/11 01:01:14;;;;;;;7.20;6.50;;;;;;;;;;5033135;28;20447;-87
2022/05/11 01:03:45;;;;;;;7.47;6.43;;;16.10;99.90;;;;;;5033715;28;20811;-88
2022/05/11 01:06:14;;;;;;;5.93;5.43;;;16.50;99.90;;;;;;5032264;28;20443;-87
2022/05/11 01:08:41;;;;;;;6.23;5.63;;;16.70;99.90;;;;;;5032273;28;20435;-87
2022/05/11 01:11:09;;;;;;;7.10;6.23;;;16.70;99.90;;;;;;5033320;28;20447;-88
2022/05/11 01:13:39;;;;;;;5.60;5.10;;;16.50;99.90;;;;;;5033028;28;20939;-88
2022/05/11 01:16:06;;;;;;;8.53;5.90;;;;;;;;;;5033176;28;20499;-87
2022/05/11 01:18:33;;;;;;;6.13;5.57;;;17.10;99.90;;;;;;5033153;28;20455;-87
2022/05/11 01:21:04;;;;;;;6.97;6.27;;;16.90;99.90;;;;;;5032964;28;20834;-89
2022/05/11 01:23:42;;;;;;;6.33;5.73;;;16.70;99.90;;;;;;5032196;28;20505;-87
2022/05/11 01:26:10;;;;;;;6.43;5.93;;;17.00;99.90;;;;;;5032946;28;20876;-86
2022/05/11 01:28:41;;;;;;;6.00;5.40;;;16.90;99.90;;;;;;5033172;28;20594;-87
2022/05/11 01:31:10;;;;;;;6.20;5.70;;;16.80;99.90;;;;;;5033305;28;20514;-86
2022/05/11 01:33:41;;;;;;;6.10;5.50;;;16.00;99.90;;;;;;5033164;28;20800;-88
2022/05/11 01:36:19;;;;;;;5.73;5.23;;;16.50;99.90;;;;;;5032817;28;20498;-87
2022/05/11 01:38:48;;;;;;;6.30;5.80;;;16.80;99.90;;;;;;5031915;28;20458;-88
2022/05/11 01:41:22;;;;;;;5.80;5.30;;;16.40;99.90;;;;;;5033141;28;20471;-90
2022/05/11 01:43:50;;;;;;;6.00;5.50;;;16.70;99.90;;;;;;5034034;28;20462;-87
2022/05/11 01:46:17;;;;;;;5.50;5.10;;;;;;;;;;5035586;28;21140;-87
2022/05/11 01:48:44;;;;;;;5.77;5.17;;;;;;;;;;5036912;28;20450;-89
2022/05/11 01:51:12;;;;;;;5.40;4.90;;;16.60;99.90;;;;;;5036682;28;20451;-90
2022/05/11 01:53:38;;;;;;;5.20;4.80;;;16.80;99.90;;;;;;5035766;28;20958;-89
2022/05/11 01:56:06;;;;;;;6.00;5.50;;;16.90;99.90;;;;;;5037013;28;20501;-88
2022/05/11 01:58:34;;;;;;;6.20;5.60;;;17.00;99.90;;;;;;5036677;28;20447;-89
2022/05/11 02:01:01;;;;;;;6.17;5.67;;;16.70;99.90;;;;;;5036813;28;20435;-89
2022/05/11 02:03:28;;;;;;;6.30;5.70;;;;;;;;;;5035226;28;20451;-87
2022/05/11 02:08:43;;;;;;;6.70;5.80;;;;;;;;;;5035505;28;20512;-88
2022/05/11 02:11:11;;;;;;;5.87;5.03;;;16.90;99.90;;;;;;5036614;28;20931;-87
2022/05/11 02:13:39;;;;;;;6.27;5.70;;;16.70;99.90;;;;;;5036491;28;20455;-87
2022/05/11 02:16:07;;;;;;;5.67;5.17;;;16.90;99.90;;;;;;5036439;28;20502;-87
2022/05/11 02:18:34;;;;;;;5.63;5.13;;;;;;;;;;5034884;28;20443;-88
2022/05/11 02:21:03;;;;;;;6.60;6.00;;;16.80;99.90;;;;;;5036545;28;20446;-86
2022/05/11 02:23:30;;;;;;;6.03;5.53;;;;;;;;;;5035993;28;20554;-89
2022/05/11 02:25:58;;;;;;;6.00;5.50;;;;;;;;;;5036169;28;20478;-87
2022/05/11 02:28:24;;;;;;;6.40;5.80;;;17.00;99.90;;;;;;5036165;28;20439;-87
2022/05/11 02:30:56;;;;;;;7.03;6.33;;;17.10;99.90;;;;;;5036022;28;20803;-87
2022/05/11 02:33:24;;;;;;;6.00;5.50;;;;;;;;;;5035944;28;20452;-87
2022/05/11 02:35:52;;;;;;;5.80;5.30;;;16.70;99.90;;;;;;5036073;28;20848;-87
2022/05/11 02:38:21;;;;;;;6.50;5.90;;;16.80;99.90;;;;;;5034976;28;20467;-86
2022/05/11 02:40:48;;;;;;;6.37;5.77;;;16.60;99.90;;;;;;5035575;28;20475;-87
2022/05/11 02:43:16;;;;;;;6.20;5.70;;;;;;;;;;5035836;28;20447;-88
2022/05/11 02:45:44;;;;;;;6.03;5.53;;;16.50;99.90;;;;;;5035849;28;20530;-88
2022/05/11 02:48:15;;;;;;;6.37;5.77;;;16.70;99.90;;;;;;5035449;28;20451;-90
2022/05/11 02:50:44;;;;;;;5.83;5.30;;;17.00;99.90;;;;;;5035958;28;20451;-88
2022/05/11 02:53:12;;;;;;;5.40;4.90;;;16.70;99.90;;;;;;5034475;28;20455;-88
2022/05/11 02:55:40;;;;;;;6.40;5.80;;;16.60;99.90;;;;;;5034705;28;20503;-89
2022/05/11 02:58:08;;;;;;;6.50;5.20;;;16.80;99.90;;;;;;5035797;28;20448;-87
2022/05/11 03:00:36;;;;;;;5.37;4.97;;;16.30;99.90;;;;;;5035522;28;20454;-88
2022/05/11 03:03:04;;;;;;;6.30;5.43;;;16.60;99.90;;;;;;5035416;28;21026;-87
2022/05/11 03:05:32;;;;;;;6.10;5.50;;;16.40;99.90;;;;;;5035739;28;20447;-87
2022/05/11 03:07:59;;;;;;;5.70;5.20;;;16.30;99.90;;;;;;5034733;28;20447;-87
2022/05/11 03:10:26;;;;;;;5.83;5.33;;;16.60;99.90;;;;;;5030286;28;20452;-87
2022/05/11 03:12:54;;;;;;;6.90;6.20;;;16.40;99.90;;;;;;5035567;28;20460;-89
2022/05/11 03:15:21;;;;;;;6.50;5.53;;;;;;;;;;5034941;28;20578;-87
2022/05/11 03:17:48;;;;;;;6.17;5.67;;;;;;;;;;5035480;28;20463;-88
2022/05/11 03:20:17;;;;;;;5.80;5.30;;;;;;;;;;5035120;28;20986;-88
2022/05/11 03:22:46;;;;;;;8.43;6.43;;;16.30;99.90;;;;;;5034114;28;20522;-88
2022/05/11 03:25:12;;;;;;;7.30;5.27;;;16.30;99.90;;;;;;5034918;28;21001;-89
2022/05/11 03:27:39;;;;;;;6.03;5.53;;;16.20;99.90;;;;;;5035032;28;20451;-88
2022/05/11 03:30:09;;;;;;;4.57;4.13;;;16.10;99.90;;;;;;5034710;28;20447;-87
2022/05/11 03:35:21;;;;;;;4.90;4.40;;;;;;;;;;5034763;28;20471;-88
2022/05/11 03:37:49;;;;;;;8.60;5.80;;;16.20;99.90;;;;;;5033793;28;20943;-88
2022/05/11 03:40:16;;;;;;;6.23;5.63;;;;;;;;;;5034759;28;20535;-88
2022/05/11 03:42:43;;;;;;;5.87;5.37;;;;;;;;;;5034752;28;20455;-87
2022/05/11 03:45:14;;;;;;;6.87;5.40;;;16.10;99.90;;;;;;5034844;28;20451;-89
2022/05/11 03:47:41;;;;;;;7.43;5.53;;;;;;;;;;5034906;28;20443;-88
2022/05/11 03:50:10;;;;;;;6.13;5.53;;;16.20;99.90;;;;;;5034845;28;20443;-87
2022/05/11 03:52:37;;;;;;;5.57;4.67;;;16.00;99.90;;;;;;5033996;28;20459;-87
2022/05/11 03:55:10;;;;;;;6.83;5.33;;;16.20;99.90;;;;;;5034510;28;20462;-87
2022/05/11 03:57:38;;;;;;;5.20;4.70;;;16.00;99.90;;;;;;5034397;28;20454;-89
2022/05/11 04:00:06;;;;;;;2.73;2.53;;;15.90;99.90;;;;;;5029256;28;20453;-88
2022/05/11 04:02:33;;;;;;;5.17;4.20;;;;;;;;;;5014482;28;20447;-88
2022/05/11 04:05:00;;;;;;;4.80;4.40;;;15.90;99.90;;;;;;5014250;28;20448;-88
2022/05/11 04:07:27;;;;;;;5.70;5.17;;;;;;;;;;5012660;28;20444;-88
2022/05/11 04:09:54;;;;;;;8.33;4.90;;;16.10;99.90;;;;;;5014219;28;20457;-90
2022/05/11 04:12:24;;;;;;;7.00;6.00;;;15.70;99.90;;;;;;5014615;28;20453;-89
2022/05/11 04:14:51;;;;;;;6.03;5.53;;;;;;;;;;5014774;28;20910;-90
2022/05/11 04:17:18;;;;;;;5.17;4.77;;;;;;;;;;5014385;28;21000;-89
2022/05/11 04:19:45;;;;;;;6.30;5.70;;;;;;;;;;5014437;28;20460;-88
2022/05/11 04:22:12;;;;;;;5.70;5.20;;;15.20;99.90;;;;;;5013337;28;20804;-87
2022/05/11 04:24:39;;;;;;;5.80;5.30;;;15.20;99.90;;;;;;5014191;28;20480;-90
2022/05/11 04:27:07;;;;;;;6.57;5.50;;;15.60;99.90;;;;;;5014432;28;20475;-87
2022/05/11 04:29:36;;;;;;;5.77;4.90;;;15.10;99.90;;;;;;5013085;28;20489;-88
2022/05/11 04:32:04;;;;;;;6.57;5.97;;;;;;;;;;5014480;28;20448;-90
2022/05/11 04:34:31;;;;;;;6.73;6.13;;;15.10;99.90;;;;;;5013885;28;20460;-88
2022/05/11 04:36:58;;;;;;;6.00;5.50;;;;;;;;;;5008791;28;20499;-87
2022/05/11 04:39:25;;;;;;;5.40;5.00;;;;;;;;;;5013485;28;20480;-88
2022/05/11 04:41:52;;;;;;;5.73;5.20;;;;;;;;;;5014604;28;20460;-86
2022/05/11 04:44:20;;;;;;;7.50;5.60;;;;;;;;;;5014367;28;20455;-89
2022/05/11 04:46:48;;;;;;;6.13;5.40;;;15.30;99.90;;;;;;5015269;28;20456;-88
2022/05/11 04:49:19;;;;;;;6.07;5.57;;;15.40;99.90;;;;;;5014234;28;20527;-89
2022/05/11 04:51:47;;;;;;;6.00;5.40;;;;;;;;;;5012291;28;20479;-88
2022/05/11 04:54:15;;;;;;;5.57;5.07;;;15.20;99.90;;;;;;5013177;28;20465;-88
2022/05/11 04:56:42;;;;;;;5.40;5.00;;;15.10;99.90;;;;;;5014076;28;20492;-89
2022/05/11 04:59:10;;;;;;;4.97;4.47;;;;;;;;;;5015118;28;20476;-87
2022/05/11 05:01:37;;;;;;;5.70;5.13;;;;;;;;;;5014132;28;20448;-87
2022/05/11 05:04:06;;;;;;;5.73;5.20;;;15.40;99.90;;;;;;5014153;28;20448;-90
2022/05/11 05:06:33;;;;;;;6.07;5.50;;;;;;;;;;5013809;28;20444;-87
2022/05/11 05:09:01;;;;;;;5.93;5.43;;;15.60;99.90;;;;;;5012784;28;20444;-87
2022/05/11 05:11:28;;;;;;;6.50;5.90;;;;;;;;;;5013436;28;20448;-87
2022/05/11 05:13:55;;;;;;;5.50;5.00;;;;;;;;;;5013480;28;20440;-87
2022/05/11 05:16:22;;;;;;;5.90;5.30;;;;;;;;;;5013574;28;20503;-89
2022/05/11 05:18:49;;;;;;;5.60;4.77;;;;;;;;;;5013375;28;20460;-88
2022/05/11 05:21:18;;;;;;;5.90;5.30;;;15.70;99.90;;;;;;5013535;28;20479;-87
2022/05/11 05:23:46;;;;;;;5.60;5.10;;;15.90;99.90;;;;;;5012514;28;20452;-89
2022/05/11 05:26:13;;;;;;;5.87;5.33;;;;;;;;;;5013136;28;20508;-88
2022/05/11 05:31:30;;;;;;;5.93;5.33;;;16.30;99.90;;;;;;5016226;28;20432;-87
2022/05/11 05:33:59;;;;;;;5.10;4.60;;;;;;;;;;5012286;28;20452;-86
2022/05/11 05:36:29;;;;;;;4.37;3.90;;;17.00;99.90;;;;;;5013450;28;20491;-88
2022/05/11 05:38:57;;;;;;;3.67;3.37;;;;;;;;;;5012121;28;20810;-88
2022/05/11 05:41:25;;;;;;;5.20;4.80;;;17.40;99.90;;;;;;5013241;28;20956;-88
2022/05/11 05:43:52;;;;;;;6.63;5.07;;;;;;;;;;5013286;28;20459;-87
2022/05/11 05:46:19;;;;;;;6.17;5.57;;;17.90;99.90;;;;;;5013479;28;20448;-88
2022/05/11 05:48:47;;;;;;;7.00;5.50;;;18.20;99.90;;;;;;5013310;28;20449;-87
2022/05/11 05:51:17;;;;;;;5.97;5.30;;;18.40;99.90;;;;;;5013073;28;20928;-88
2022/05/11 05:53:46;;;;;;;6.07;5.20;;;17.80;99.90;;;;;;5012238;28;20448;-89
2022/05/11 05:56:14;;;;;;;5.47;4.97;;;18.30;99.90;;;;;;5013411;28;20476;-92
2022/05/11 05:58:41;;;;;;;5.40;4.90;;;;;;;;;;5013505;28;20452;-91
2022/05/11 06:01:08;;;;;;;5.47;5.07;;;;;;;;;;5012937;28;20506;-89
2022/05/11 06:03:37;;;;;;;6.00;5.50;;;18.40;99.90;;;;;;5012943;28;20460;-89
2022/05/11 06:06:04;;;;;;;6.00;5.40;;;18.90;99.90;;;;;;5013314;28;20943;-90
2022/05/11 06:08:31;;;;;;;4.90;4.50;;;;;;;;;;5012059;28;20769;-89
2022/05/11 06:10:59;;;;;;;5.50;5.00;;;18.90;99.90;;;;;;5013461;28;20460;-89
2022/05/11 06:13:27;;;;;;;5.37;4.93;;;;;;;;;;5013390;28;20559;-90
2022/05/11 06:15:55;;;;;;;5.53;5.13;;;19.30;99.90;;;;;;5013643;28;20484;-89
2022/05/11 06:18:24;;;;;;;5.90;4.77;;;19.40;99.90;;;;;;5015358;28;20463;-91
2022/05/11 06:20:52;;;;;;;5.73;5.30;;;;;;;;;;5014582;28;20464;-88
2022/05/11 06:23:19;;;;;;;5.40;5.00;;;;;;;;;;5012650;28;20913;-88
2022/05/11 06:25:49;;;;;;;6.53;5.93;;;20.10;99.90;;;;;;5013328;28;20840;-90
2022/05/11 06:28:18;;;;;;;5.97;5.40;;;20.30;99.90;;;;;;5013503;28;20452;-89
2022/05/11 06:30:47;;;;;;;6.20;5.23;;;20.10;99.90;;;;;;5013937;28;20451;-90
2022/05/11 06:33:14;;;;;;;5.03;4.63;;;;;;;;;;5016334;28;20450;-90
2022/05/11 06:35:41;;;;;;;6.17;5.67;;;20.10;99.90;;;;;;5019306;28;20983;-93
2022/05/11 06:38:10;;;;;;;4.60;4.20;;;20.30;99.90;;;;;;5016291;28;20472;-94
2022/05/11 06:40:37;;;;;;;5.33;4.47;;;20.30;99.90;;;;;;5016931;28;20464;-93
2022/05/11 06:43:05;;;;;;;5.20;4.50;;;;;;;;;;5018255;28;20870;-86
2022/05/11 06:45:33;;;;;;;5.53;4.63;;;20.50;99.90;;;;;;5019133;28;20459;-89
2022/05/11 06:48:00;;;;;;;4.67;4.27;;;;;;;;;;5016545;28;20453;-92
2022/05/11 06:50:28;;;;;;;6.23;4.70;;;;;;;;;;5016489;28;20460;-88
2022/05/11 06:52:55;;;;;;;6.10;5.70;;;20.30;99.90;;;;;;5015398;28;20456;-88
2022/05/11 07:00:53;;;;;;;5.20;4.80;;;20.80;99.90;;;;;;5018908;28;20536;-89
2022/05/11 07:03:20;;;;;;;4.43;4.03;;;;;;;;;;5027515;28;20449;-89
2022/05/11 07:05:47;;;;;;;4.43;4.03;;;;;;;;;;5018062;28;20452;-89
2022/05/11 07:08:15;;;;;;;4.43;4.03;;;;;;;;;;5016976;28;20444;-88
2022/05/11 07:12:17;;;;;;;4.80;4.50;;;21.40;97.70;;;;;;5016405;28;20475;-95
2022/05/11 07:13:30;;;;;;;8.50;4.97;;;;;;;;;;5016325;28;20516;-87
2022/05/11 07:15:58;;;;;;;4.57;4.17;;;22.00;99.90;;;;;;5015732;28;20448;-89
2022/05/11 07:18:26;;;;;;;4.57;4.17;;;;;;;;;;5015702;28;20449;-85
2022/05/11 07:20:54;;;;;;;4.70;4.30;;;21.20;99.90;;;;;;5015297;28;20448;-87
2022/05/11 07:23:21;;;;;;;4.67;4.07;;;;;;;;;;5013996;28;20457;-87
2022/05/11 07:25:48;;;;;;;4.67;4.27;;;22.40;99.90;;;;;;5015112;28;20487;-86
2022/05/11 07:28:16;;;;;;;4.30;3.90;;;22.30;95.60;;;;;;5015459;28;20479;-94
2022/05/11 07:30:46;;;;;;;4.77;4.40;;;22.40;99.90;;;;;;5018077;28;20448;-89
2022/05/11 07:33:15;;;;;;;4.33;4.03;;;22.30;99.90;;;;;;5015348;28;20475;-89
2022/05/11 07:35:43;;;;;;;5.07;4.47;;;;;;;;;;5015641;28;20451;-85
2022/05/11 07:38:12;;;;;;;4.70;4.40;;;22.10;99.90;;;;;;5013785;28;20869;-86
2022/05/11 07:40:39;;;;;;;4.70;4.40;;;22.60;99.90;;;;;;5014905;28;20448;-85
2022/05/11 07:43:06;;;;;;;4.57;4.10;;;22.80;99.90;;;;;;5015260;28;20539;-87
2022/05/11 07:45:33;;;;;;;5.07;4.57;;;23.10;99.90;;;;;;5029366;28;20447;-86
2022/05/11 07:48:00;;;;;;;4.50;4.20;;;;;;;;;;5034360;28;20447;-88
2022/05/11 07:50:28;;;;;;;4.27;3.97;;;23.50;99.40;;;;;;5034414;28;20447;-88
2022/05/11 07:52:55;;;;;;;4.10;3.80;;;;;;;;;;5033297;28;20450;-84
2022/05/11 07:55:24;;;;;;;9.10;4.63;;;23.30;99.90;;;;;;5034464;28;20495;-84
2022/05/11 08:00:37;;;;;;;4.10;3.80;;;;;;;;;;5034323;28;21095;-84
2022/05/11 08:03:03;;;;;;;4.50;3.90;;;23.60;99.90;;;;;;5034173;28;20459;-86
2022/05/11 08:05:32;;;;;;;4.67;4.37;;;24.00;99.90;;;;;;5025294;28;20449;-86
2022/05/11 08:08:02;;;;;;;4.27;3.87;;;24.10;91.50;;;;;;5012088;28;20511;-89
2022/05/11 08:10:31;;;;;;;4.80;3.73;;;24.20;96.90;;;;;;5034040;28;20456;-87
2022/05/11 08:13:00;;;;;;;2.60;2.40;;;24.60;99.70;;;;;;5033937;28;20451;-91
2022/05/11 08:15:30;;;;;;;4.50;3.80;;;24.60;99.90;;;;;;5033889;28;20498;-87
2022/05/11 08:17:57;;;;;;;4.33;3.83;;;;;;;;;;5033850;28;20495;-86
2022/05/11 08:20:27;;;;;;;3.57;3.27;;;24.00;99.40;;;;;;5034299;28;20447;-87
2022/05/11 08:22:55;;;;;;;5.20;4.60;;;24.20;99.90;;;;;;5032632;28;20455;-87
2022/05/11 08:25:25;;;;;;;4.03;3.63;;;24.80;90.20;;;;;;5033528;28;20998;-87
2022/05/11 08:27:54;;;;;;;4.43;4.03;;;24.70;90.20;;;;;;5033841;28;20454;-87
2022/05/11 08:33:22;;;;;;;4.67;4.27;;;25.80;85.30;;;;;;5033822;28;20430;-87
2022/05/11 08:35:51;;;;;;;4.43;4.00;;;26.40;99.20;;;;;;5033513;28;20514;-90
2022/05/11 08:38:21;;;;;;;4.80;3.93;;;25.20;99.90;;;;;;5032224;28;20491;-85
2022/05/11 08:40:52;;;;;;;4.90;4.53;;;25.50;86.10;;;;;;5033844;28;20459;-88
2022/05/11 08:43:19;;;;;;;4.73;4.33;;;25.30;87.50;;;;;;5033806;28;20447;-87
2022/05/11 08:45:51;;;;;;;4.90;4.50;;;25.70;88.10;;;;;;5033376;28;20440;-87
2022/05/11 08:48:22;;;;;;;7.47;4.30;;;24.80;86.50;;;;;;5033436;28;20526;-90
2022/05/11 08:50:49;;;;;;;5.33;4.77;;;24.80;99.90;;;;;;5033365;28;20482;-86
2022/05/11 08:53:31;;;;;;;4.87;4.13;;;24.90;93.10;;;;;;5031974;28;20451;-87
2022/05/11 08:56:02;;;;;;;4.73;4.30;;;25.20;99.90;;;;;;5033298;28;20447;-84
2022/05/11 08:58:33;;;;;;;4.73;4.33;;;25.00;99.90;;;;;;5033122;28;20513;-86
2022/05/11 09:01:01;;;;;;;4.87;4.47;;;25.30;86.20;;;;;;5032730;28;20855;-84
2022/05/11 09:03:34;;;;;;;10.80;5.10;;;25.60;85.80;;;;;;5033068;28;20448;-85
2022/05/11 09:06:03;;;;;;;3.10;2.90;;;25.50;86.10;;;;;;5033447;28;20823;-88
2022/05/11 09:08:36;;;;;;;6.93;4.00;;;25.30;86.30;;;;;;5031685;28;20447;-89
2022/05/11 09:11:03;;;;;;;7.33;5.20;;;;;;;;;;5033458;28;20609;-90
2022/05/11 09:13:30;;;;;;;5.40;4.90;;;24.80;99.90;;;;;;5033158;28;20451;-88
2022/05/11 09:16:00;;;;;;;5.40;4.90;;;25.30;98.40;;;;;;5033227;28;20451;-88
2022/05/11 09:18:39;;;;;;;4.40;4.00;;;25.00;88.60;;;;;;5033225;28;20998;-86
2022/05/11 09:21:21;;;;;;;3.43;3.13;;;25.50;99.90;;;;;;5033384;28;20465;-86
2022/05/11 09:24:03;;;;;;;4.20;3.90;;;24.80;86.80;;;;;;5031875;28;20458;-88
2022/05/11 09:26:32;;;;;;;4.40;4.10;;;24.80;98.30;;;;;;5032907;28;20474;-86
2022/05/11 09:29:16;;;;;;;4.40;4.00;;;24.70;99.00;;;;;;5032987;28;20443;-86
2022/05/11 09:31:44;;;;;;;4.83;4.43;;;;;;;;;;5032980;28;20992;-86
2022/05/11 09:34:14;;;;;;;4.90;4.23;;;25.10;85.30;;;;;;5033705;28;20447;-91
2022/05/11 09:36:44;;;;;;;5.40;5.00;;;25.90;98.40;;;;;;5032827;28;20478;-86
2022/05/11 09:39:16;;;;;;;4.33;4.03;;;25.00;99.90;;;;;;5032349;28;20455;-87
2022/05/11 09:41:49;;;;;;;5.90;4.97;;;25.80;86.00;;;;;;5033031;28;20459;-87
2022/05/11 09:44:21;;;;;;;5.80;5.07;;;26.30;83.50;;;;;;5033097;28;20447;-93
2022/05/11 09:46:48;;;;;;;5.10;4.70;;;;;;;;;;5032959;28;20452;-87
2022/05/11 09:49:27;;;;;;;5.80;5.40;;;26.10;99.90;;;;;;5024474;28;20455;-90
2022/05/11 09:51:55;;;;;;;4.60;4.30;;;26.30;82.70;;;;;;5033885;28;20458;-89
2022/05/11 09:54:29;;;;;;;5.67;5.17;;;26.40;83.60;;;;;;5031678;28;20963;-90
2022/05/11 09:57:01;;;;;;;5.10;4.60;;;26.20;99.90;;;;;;5035379;28;20447;-88
2022/05/11 09:59:31;;;;;;;5.10;4.70;;;26.60;82.00;;;;;;5033254;28;20451;-89
2022/05/11 10:02:19;;;;;;;4.13;3.80;;;26.30;99.90;;;;;;5035019;28;20451;-94
2022/05/11 10:04:53;;;;;;;5.07;4.67;;;26.30;82.70;;;;;;5034880;28;20454;-86
2022/05/11 10:07:21;;;;;;;5.93;4.83;;;;;;;;;;5034657;28;20466;-91
2022/05/11 10:09:55;;;;;;;4.97;4.67;;;26.30;95.90;;;;;;5038012;28;20462;-87
2022/05/11 10:12:29;;;;;;;4.63;4.33;;;26.50;80.00;;;;;;5040003;28;20801;-87
2022/05/11 10:23:30;;;;;;;6.43;4.67;;;27.10;78.40;;;;;;5037382;28;20466;-89
2022/05/11 10:26:02;;;;;;;4.00;3.70;;;26.50;75.90;;;;;;5037364;28;20478;-90
2022/05/11 10:28:41;;;;;;;5.40;4.90;;;26.50;94.40;;;;;;5038713;28;20447;-88
2022/05/11 10:31:17;;;;;;;3.83;3.50;;;26.10;75.60;;;;;;5039834;28;20455;-86
2022/05/11 10:33:56;;;;;;;5.90;4.50;;;26.20;80.20;;;;;;5036176;28;20465;-89
2022/05/11 10:36:35;;;;;;;9.53;4.13;;;26.70;74.60;;;;;;5036183;28;20505;-91
2022/05/11 10:39:19;;;;;;;4.00;3.37;;;26.60;74.90;;;;;;5037545;28;20487;-93
2022/05/11 10:41:54;;;;;;;5.00;4.50;;;26.60;99.30;;;;;;5039419;28;20959;-92
2022/05/11 10:44:36;;;;;;;4.93;4.53;;;27.20;99.40;;;;;;5036244;28;20452;-90
2022/05/11 10:47:13;;;;;;;3.60;3.30;;;27.90;96.60;;;;;;5036788;28;20962;-89
2022/05/11 10:49:51;;;;;;;4.33;4.03;;;26.90;72.50;;;;;;5037802;28;20423;-94
2022/05/11 10:52:34;;;;;;;3.00;2.70;;;26.60;92.90;;;;;;5037411;28;20455;-89
2022/05/11 10:55:13;;;;;;;3.63;3.37;;;27.20;72.80;;;;;;5038433;28;20454;-92
2022/05/11 10:57:50;;;;;;;4.40;3.80;;;26.60;71.70;;;;;;5041266;28;20982;-91
2022/05/11 11:00:21;;;;;;;4.27;3.97;;;26.20;72.50;;;;;;5037624;28;20818;-92
2022/05/11 11:03:35;;;;;;;4.40;4.00;;;26.30;98.20;;;;;;5036174;28;20546;-89
2022/05/11 11:09:08;;;;;;;4.40;4.10;;;28.30;72.30;;;;;;5035290;28;20517;-88
2022/05/11 11:11:39;;;;;;;3.97;3.67;;;28.20;68.00;;;;;;5035895;28;20463;-92
2022/05/11 11:14:11;;;;;;;3.40;3.10;;;27.30;68.70;;;;;;5038576;28;20451;-92
2022/05/11 11:16:40;;;;;;;3.73;3.43;;;26.70;71.10;;;;;;5037308;28;20448;-89
2022/05/11 11:19:10;;;;;;;4.83;4.43;;;26.90;71.50;;;;;;5037346;28;20488;-88
2022/05/11 11:21:41;;;;;;;6.13;3.47;;;26.90;68.80;;;;;;5038981;28;20448;-94
2022/05/11 11:24:22;;;;;;;5.07;4.67;;;26.80;92.60;;;;;;5036552;28;20464;-90
2022/05/11 11:26:54;;;;;;;4.53;4.13;;;27.20;70.40;;;;;;5040390;28;20431;-92
2022/05/11 11:29:32;;;;;;;5.60;3.90;;;26.90;70.00;;;;;;5040590;28;20447;-91
2022/05/11 11:32:11;;;;;;;3.83;3.43;;;26.40;92.40;;;;;;5038042;28;20494;-92
2022/05/11 11:34:39;;;;;;;7.63;3.63;;;26.80;68.40;;;;;;5036687;28;20447;-88
2022/05/11 11:37:52;;;;;;;4.40;4.00;;;27.20;96.00;;;;;;5034763;28;20540;-92
2022/05/11 11:40:22;;;;;;;5.17;4.67;;;27.50;68.40;;;;;;5037064;28;20530;-89
2022/05/11 11:42:50;;;;;;;4.40;4.00;;;;;;;;;;5037227;28;20444;-88
2022/05/11 11:46:03;;;;;;;4.07;3.77;;;28.10;65.40;;;;;;5036775;28;20444;-87
2022/05/11 11:48:34;;;;;;;5.13;4.40;;;28.00;67.60;;;;;;5036303;28;20483;-86
2022/05/11 11:51:04;;;;;;;4.37;3.30;;;28.00;62.80;;;;;;5036555;28;20452;-90
2022/05/11 11:53:37;;;;;;;4.03;3.70;;;28.10;95.30;;;;;;5035226;28;20822;-91
2022/05/11 11:56:49;;;;;;;6.37;4.20;;;27.70;61.90;;;;;;5037468;28;21009;-89
2022/05/11 11:59:49;;;;;;;4.90;3.83;;;27.40;90.60;;;;;;5038398;28;21012;-90
2022/05/11 12:02:22;;;;;;;4.10;3.70;;;27.50;63.00;;;;;;4996249;28;20468;-91
2022/05/11 12:05:05;;;;;;;3.40;3.20;;;27.40;60.90;;;;;;4997354;28;20453;-89
2022/05/11 12:16:16;;;;;;;4.37;3.30;;;;;;;;;;5038397;28;20477;-92
2022/05/11 12:18:45;;;;;;;2.87;2.60;;;28.20;56.30;;;;;;5038278;28;20487;-91
2022/05/11 12:21:26;;;;;;;4.00;3.57;;;27.90;58.20;;;;;;5018083;28;20483;-92
2022/05/11 12:23:53;;;;;;;6.20;3.10;;;;;;;;;;5022059;28;20998;-91
2022/05/11 12:26:24;;;;;;;3.50;3.20;;;27.80;56.20;;;;;;5015266;28;20471;-90
2022/05/11 12:29:54;;;;;;;3.53;2.83;;;28.10;93.40;;;;;;5017524;28;20440;-91
2022/05/11 12:31:52;;;;;;;3.53;3.23;;;28.10;56.90;;;;;;5016305;28;20441;-89
2022/05/11 12:34:22;;;;;;;2.87;2.50;;;27.80;55.60;;;;;;5016080;28;20500;-88
2022/05/11 12:36:53;;;;;;;3.20;2.90;;;27.60;55.50;;;;;;5014880;28;20464;-87
2022/05/11 12:39:29;;;;;;;3.07;2.87;;;27.40;56.10;;;;;;5018733;28;20551;-93
2022/05/11 12:41:58;;;;;;;5.73;3.30;;;;;;;;;;5017238;28;20452;-92
2022/05/11 12:44:29;;;;;;;3.17;2.90;;;28.40;54.10;;;;;;5022514;28;20452;-92
2022/05/11 12:47:01;;;;;;;3.37;3.07;;;27.70;54.70;;;;;;5018748;28;20965;-85
2022/05/11 12:49:29;;;;;;;3.20;2.80;;;;;;;;;;5018940;28;20539;-89
2022/05/11 12:52:02;;;;;;;3.33;3.00;;;28.10;55.40;;;;;;5016796;28;20491;-91
2022/05/11 12:54:31;;;;;;;2.63;2.43;;;27.70;52.50;;;;;;5016563;28;20467;-87
2022/05/11 12:57:02;;;;;;;1.60;1.50;;;27.80;51.90;;;;;;5017455;28;20452;-92
2022/05/11 12:59:30;;;;;;;3.17;2.90;;;28.10;51.60;;;;;;5015435;28;20504;-87
2022/05/11 13:02:15;;;;;;;4.37;2.70;;;28.20;51.60;;;;;;5017475;28;20924;-91
2022/05/11 13:04:50;;;;;;;7.00;2.77;;;28.30;51.30;;;;;;5017533;28;20529;-92
2022/05/11 13:07:23;;;;;;;2.77;2.47;;;28.00;52.50;;;;;;5014935;28;20514;-91
2022/05/11 13:09:54;;;;;;;3.07;2.87;;;28.10;53.20;;;;;;5018246;28;20487;-92
2022/05/11 13:12:25;;;;;;;3.17;2.87;;;28.20;51.20;;;;;;5019271;28;20460;-89
2022/05/11 13:14:54;;;;;;;2.50;2.30;;;27.90;50.80;;;;;;5021466;28;20463;-92
2022/05/11 13:17:24;;;;;;;5.40;3.00;;;28.50;53.20;;;;;;5017719;28;20449;-88
2022/05/11 13:19:57;;;;;;;3.30;3.00;;;28.40;51.60;;;;;;5018532;28;20488;-90
2022/05/11 13:22:28;;;;;;;3.60;3.30;;;28.00;52.70;;;;;;5016022;28;20452;-90
2022/05/11 13:24:57;;;;;;;3.57;3.00;;;28.40;52.30;;;;;;5015889;28;20506;-95
2022/05/11 13:27:34;;;;;;;3.23;2.93;;;28.30;48.70;;;;;;5017544;28;20452;-92
2022/05/11 13:30:15;;;;;;;2.50;1.67;;;28.10;48.60;;;;;;5016184;28;20440;-92
2022/05/11 13:32:45;;;;;;;5.30;2.53;;;28.50;50.90;;;;;;5013794;28;20452;-93
2022/05/11 13:35:24;;;;;;;3.13;2.83;;;28.70;49.00;;;;;;5014927;28;20490;-89
2022/05/11 13:37:59;;;;;;;2.60;2.40;;;28.20;48.80;;;;;;5015657;28;20437;-93
2022/05/11 13:40:33;;;;;;;5.33;3.17;;;28.50;49.80;;;;;;5018387;28;20463;-93
2022/05/11 13:43:00;;;;;;;3.23;2.90;;;;;;;;;;5021057;28;20448;-91
2022/05/11 13:45:28;;;;;;;3.70;2.77;;;;;;;;;;5021562;28;20495;-87
2022/05/11 13:48:14;;;;;;;3.23;3.03;;;28.10;49.80;;;;;;5020000;28;20451;-91
2022/05/11 13:50:44;;;;;;;1.77;1.67;;;28.00;47.80;;;;;;5021220;28;20444;-89
2022/05/11 13:53:29;;;;;;;3.10;2.80;;;28.20;47.70;;;;;;5020076;28;20948;-90
2022/05/11 13:56:09;;;;;;;2.63;2.43;;;28.00;46.70;;;;;;5019397;28;20456;-92
2022/05/11 13:58:39;;;;;;;10.90;2.73;;;28.20;47.90;;;;;;5018569;28;20479;-90
2022/05/11 14:01:12;;;;;;;3.13;2.63;;;28.30;47.80;;;;;;5020860;28;20456;-94
2022/05/11 14:03:40;;;;;;;3.23;2.60;;;;;;;;;;5018585;28;20755;-93
2022/05/11 14:06:12;;;;;;;3.00;2.77;;;28.00;48.00;;;;;;5019749;28;20452;-88
2022/05/11 14:08:41;;;;;;;2.90;2.70;;;28.00;49.60;;;;;;5019446;28;20476;-87
2022/05/11 14:11:08;;;;;;;4.23;2.30;;;;;;;;;;5026531;28;20448;-91
2022/05/11 14:13:35;;;;;;;3.20;2.57;;;;;;;;;;5034752;28;20523;-91
2022/05/11 14:16:05;;;;;;;3.23;3.03;;;28.10;47.20;;;;;;5032856;28;20460;-89